Time;durP1;ratioP1;P1;durP2;ratioP2;P2;SDS_P1;SDS_P2;PMS_P1;PMS_P2;Temp;Humidity;BMP_temperature;BMP_pressure;BME280_temperature;BME280_humidity;BME280_pressure;Samples;Min_cycle;Max_cycle;Signal;HPM_P1;HPM_P2
2024/02/13 00:04:30;;;;;;;22.00;12.90;;;;;;;8.12;80.43;97638.31;103282;1289;600381;-23
2024/02/13 00:06:57;;;;;;;21.10;13.10;;;;;;;7.42;83.84;97633.84;105080;1265;61201;-22
2024/02/13 00:09:25;;;;;;;14.90;9.40;;;;;;;7.48;84.48;97634.66;105042;1270;61743;-23
2024/02/13 00:11:53;;;;;;;14.80;10.30;;;;;;;8.01;81.75;97635.20;104855;1271;70918;-23
2024/02/13 00:14:21;;;;;;;11.00;8.60;;;;;;;7.46;83.32;97634.15;105110;1269;74288;-23
2024/02/13 00:16:49;;;;;;;12.20;8.80;;;;;;;7.19;85.08;97630.23;105034;1267;72647;-23
2024/02/13 00:19:17;;;;;;;21.10;11.30;;;;;;;7.02;85.48;97626.52;105015;1266;169431;-23
2024/02/13 00:21:48;;;;;;;10.40;7.40;;;;;;;6.70;87.40;97630.09;105051;1266;61112;-23
2024/02/13 00:24:16;;;;;;;13.40;9.50;;;;;;;7.23;85.05;97634.30;105161;1269;70961;-23
2024/02/13 00:26:44;;;;;;;13.30;8.70;;;;;;;7.35;84.00;97638.57;105238;1267;74283;-25
2024/02/13 00:36:53;;;;;;;10.40;7.30;;;;;;;7.38;82.94;97640.23;102736;1291;599411;-24
2024/02/13 00:39:21;;;;;;;11.90;7.90;;;;;;;7.32;83.04;97639.18;104838;1267;61113;-24
2024/02/13 00:49:26;;;;;;;11.10;6.80;;;;;;;6.76;85.73;97645.34;102711;1289;600177;-24
2024/02/13 00:51:56;;;;;;;10.00;7.10;;;;;;;6.92;85.69;97645.52;104913;1263;61011;-24
2024/02/13 00:54:24;;;;;;;10.50;7.30;;;;;;;7.77;81.97;97647.73;104905;1263;61165;-24
2024/02/13 00:56:55;;;;;;;14.40;7.10;;;;;;;7.87;80.04;97646.01;104890;1264;70966;-24
2024/02/13 00:59:23;;;;;;;9.70;7.00;;;;;;;7.75;80.35;97643.79;104889;1270;72182;-23
2024/02/13 01:01:51;;;;;;;12.00;8.30;;;;;;;7.51;81.13;97646.65;104873;1266;72668;-24
2024/02/13 01:04:21;;;;;;;9.50;5.60;;;;;;;7.06;83.57;97654.33;105029;1267;61249;-24
2024/02/13 01:06:50;;;;;;;11.00;8.40;;;;;;;7.56;81.94;97654.85;105086;1263;61052;-24
2024/02/13 01:16:58;;;;;;;11.40;8.30;;;;;;;7.75;80.03;97657.91;102714;1289;599008;-24
2024/02/13 01:19:26;;;;;;;13.00;8.20;;;;;;;7.62;81.17;97661.25;104854;1264;61059;-24
2024/02/13 01:21:54;;;;;;;9.10;6.40;;;;;;;7.59;80.96;97662.89;104786;1264;61113;-23
2024/02/13 01:31:58;;;;;;;14.10;9.70;;;;;;;7.63;81.11;97660.59;102693;1295;600093;-23
2024/02/13 01:34:26;;;;;;;17.20;11.10;;;;;;;7.01;83.75;97661.59;104871;1264;61107;-23
2024/02/13 01:36:57;;;;;;;11.40;8.50;;;;;;;6.58;86.72;97660.35;104816;1272;61741;-23
2024/02/13 01:39:26;;;;;;;13.60;9.80;;;;;;;6.38;88.03;97659.39;104932;1270;72237;-23
2024/02/13 01:41:56;;;;;;;14.20;9.10;;;;;;;6.65;86.66;97656.69;104898;1264;74398;-23
2024/02/13 01:44:27;;;;;;;12.90;9.60;;;;;;;6.54;86.98;97658.63;104905;1269;72719;-24
2024/02/13 01:46:55;;;;;;;13.80;8.80;;;;;;;6.46;88.10;97660.86;105000;1267;61697;-25
2024/02/13 01:49:23;;;;;;;11.00;6.60;;;;;;;6.58;87.02;97664.73;105104;1264;61204;-26
2024/02/13 01:51:51;;;;;;;11.00;7.50;;;;;;;6.75;86.64;97665.44;105004;1270;72152;-25
2024/02/13 02:01:59;;;;;;;10.90;7.10;;;;;;;6.39;88.08;97666.17;102699;1294;599438;-25
2024/02/13 02:04:27;;;;;;;13.90;10.20;;;;;;;7.44;84.17;97669.24;104859;1266;61180;-25
2024/02/13 02:06:54;;;;;;;15.50;9.30;;;;;;;7.49;82.28;97669.48;104769;1271;61124;-25
2024/02/13 02:09:23;;;;;;;13.60;9.00;;;;;;;7.41;82.00;97669.13;104832;1272;72223;-25
2024/02/13 02:11:50;;;;;;;14.30;8.40;;;;;;;7.31;82.92;97674.70;104876;1271;74335;-25
2024/02/13 02:14:19;;;;;;;17.10;11.60;;;;;;;6.85;84.58;97674.42;104806;1273;72687;-25
2024/02/13 02:16:47;;;;;;;10.30;7.40;;;;;;;6.52;87.21;97679.31;104815;1271;178860;-25
2024/02/13 02:27:15;;;;;;;14.70;9.70;;;;;;;7.82;80.72;97687.77;102499;1293;615143;-27
2024/02/13 02:29:42;;;;;;;14.80;9.20;;;;;;;7.44;81.57;97685.63;104878;1265;61170;-26
2024/02/13 02:32:09;;;;;;;11.00;7.40;;;;;;;7.14;83.44;97690.32;105035;1269;62661;-27
2024/02/13 02:34:36;;;;;;;12.90;8.50;;;;;;;7.42;82.47;97688.42;105029;1266;72236;-25
2024/02/13 02:37:04;;;;;;;11.00;7.80;;;;;;;7.32;82.52;97685.46;105008;1267;74809;-24
2024/02/13 02:39:32;;;;;;;12.50;8.30;;;;;;;7.09;83.74;97683.88;104839;1267;180813;-25
2024/02/13 02:41:59;;;;;;;15.40;10.10;;;;;;;7.03;84.08;97682.73;104785;1269;61135;-25
2024/02/13 02:44:26;;;;;;;15.20;9.00;;;;;;;6.69;85.69;97681.63;104999;1263;61089;-24
2024/02/13 02:46:53;;;;;;;12.80;8.90;;;;;;;6.65;86.53;97683.59;105101;1263;72269;-26
2024/02/13 02:49:20;;;;;;;14.90;9.40;;;;;;;6.99;85.03;97683.70;105191;1263;74525;-26
2024/02/13 02:51:47;;;;;;;12.20;8.90;;;;;;;7.05;84.35;97682.40;105120;1264;71517;-26
2024/02/13 02:54:14;;;;;;;14.70;9.30;;;;;;;6.87;85.20;97682.02;104993;1263;61103;-26
2024/02/13 02:56:42;;;;;;;14.90;10.30;;;;;;;6.88;85.19;97684.02;104947;1267;61176;-26
2024/02/13 02:59:09;;;;;;;11.20;7.60;;;;;;;6.56;87.01;97682.63;104971;1263;72041;-25
2024/02/13 03:01:36;;;;;;;13.00;9.50;;;;;;;6.71;86.65;97681.00;105224;1266;74700;-26
2024/02/13 03:04:06;;;;;;;12.60;8.90;;;;;;;6.92;85.60;97681.91;105167;1266;73270;-26
2024/02/13 03:06:38;;;;;;;10.50;6.90;;;;;;;6.91;85.42;97687.35;104985;1265;61116;-26
2024/02/13 03:09:05;;;;;;;10.20;6.80;;;;;;;6.76;85.65;97688.17;105004;1267;61173;-26
2024/02/13 03:11:34;;;;;;;9.50;6.30;;;;;;;6.89;85.25;97689.58;104955;1269;71891;-26
2024/02/13 03:14:01;;;;;;;10.40;7.60;;;;;;;7.16;84.30;97693.31;104912;1266;74181;-26
2024/02/13 03:16:30;;;;;;;10.30;7.30;;;;;;;7.51;82.43;97695.01;105064;1264;72685;-25
2024/02/13 03:18:58;;;;;;;12.30;7.90;;;;;;;7.40;82.47;97698.56;104895;1264;61077;-25
2024/02/13 03:21:25;;;;;;;10.60;7.40;;;;;;;7.17;83.33;97701.85;105120;1264;61189;-26
2024/02/13 03:23:52;;;;;;;7.80;5.60;;;;;;;7.14;83.65;97703.16;104868;1267;73098;-26
2024/02/13 03:26:20;;;;;;;6.60;5.00;;;;;;;7.29;83.19;97707.32;104891;1266;74237;-26
2024/02/13 03:28:47;;;;;;;10.40;6.90;;;;;;;7.71;81.09;97705.46;105125;1267;72461;-26
2024/02/13 03:31:14;;;;;;;11.60;7.30;;;;;;;7.48;81.91;97708.77;105028;1267;61100;-25
2024/02/13 03:33:41;;;;;;;6.50;4.80;;;;;;;7.16;82.98;97707.59;104936;1269;61119;-26
2024/02/13 03:36:10;;;;;;;9.70;6.50;;;;;;;6.60;86.14;97709.71;104935;1267;73077;-26
2024/02/13 03:38:37;;;;;;;7.20;5.10;;;;;;;6.74;86.79;97709.19;105024;1267;74265;-26
2024/02/13 03:41:04;;;;;;;16.10;9.20;;;;;;;7.05;84.74;97710.30;104925;1267;73458;-26
2024/02/13 03:43:31;;;;;;;13.00;7.70;;;;;;;7.02;84.98;97710.91;105529;1257;61065;-26
2024/02/13 03:45:58;;;;;;;8.70;6.10;;;;;;;7.01;84.58;97709.09;105266;1259;61160;-26
2024/02/13 03:48:25;;;;;;;11.30;7.90;;;;;;;6.87;84.80;97716.67;105576;1257;72992;-26
2024/02/13 03:50:52;;;;;;;5.50;3.80;;;;;;;7.15;84.47;97724.25;105581;1263;74351;-25
2024/02/13 03:53:19;;;;;;;12.90;8.50;;;;;;;7.46;82.83;97728.27;105586;1257;72522;-26
2024/02/13 03:55:47;;;;;;;9.80;6.50;;;;;;;7.25;83.54;97729.40;105653;1257;61092;-25
2024/02/13 03:58:15;;;;;;;9.00;5.40;;;;;;;7.23;83.38;97732.34;105600;1258;61150;-25
2024/02/13 04:00:42;;;;;;;13.60;8.70;;;;;;;6.90;84.61;97730.61;105653;1257;73065;-25
2024/02/13 04:03:11;;;;;;;8.80;6.60;;;;;;;6.81;86.07;97734.27;105631;1257;74220;-25
2024/02/13 04:05:39;;;;;;;9.50;6.80;;;;;;;7.11;84.84;97733.07;105621;1257;71524;-25
2024/02/13 04:08:06;;;;;;;14.70;9.30;;;;;;;6.97;84.54;97727.88;105554;1257;61127;-25
2024/02/13 04:10:34;;;;;;;8.40;6.20;;;;;;;6.38;88.26;97723.45;105503;1263;61147;-25
2024/02/13 04:13:01;;;;;;;8.20;6.00;;;;;;;6.29;89.21;97714.21;105530;1263;71505;-25
2024/02/13 04:15:29;;;;;;;8.10;5.80;;;;;;;6.88;86.59;97705.54;105612;1261;74030;-26
2024/02/13 04:17:57;;;;;;;7.30;4.90;;;;;;;6.84;86.08;97713.33;105588;1258;72758;-24
2024/02/13 04:20:24;;;;;;;13.60;8.60;;;;;;;6.92;85.81;97723.20;105620;1257;60997;-24
2024/02/13 04:22:52;;;;;;;10.20;6.60;;;;;;;7.18;84.61;97735.89;105606;1261;61087;-24
2024/02/13 04:25:19;;;;;;;8.90;4.80;;;;;;;6.99;85.11;97741.33;105440;1263;73076;-24
2024/02/13 04:27:46;;;;;;;11.00;6.40;;;;;;;7.70;82.73;97744.44;105326;1257;74369;-24
2024/02/13 04:30:13;;;;;;;9.00;5.20;;;;;;;8.19;79.64;97739.14;105431;1259;72325;-25
2024/02/13 04:32:41;;;;;;;12.60;7.90;;;;;;;8.05;79.41;97741.29;105526;1257;61070;-25
2024/02/13 04:35:08;;;;;;;11.40;8.40;;;;;;;7.57;81.24;97747.98;105465;1262;61123;-25
2024/02/13 04:37:36;;;;;;;18.80;11.80;;;;;;;7.07;84.11;97752.23;105327;1263;72968;-25
2024/02/13 04:40:04;;;;;;;13.90;8.10;;;;;;;6.82;85.57;97754.02;105539;1257;74313;-24
2024/02/13 04:42:32;;;;;;;14.30;9.50;;;;;;;7.10;84.65;97759.54;105538;1263;71745;-24
2024/02/13 04:44:59;;;;;;;10.80;6.90;;;;;;;7.40;82.97;97754.21;105534;1258;61089;-25
2024/02/13 04:47:28;;;;;;;13.50;8.80;;;;;;;6.95;84.74;97750.31;105566;1257;61147;-24
2024/02/13 04:50:06;;;;;;;12.50;8.10;;;;;;;7.03;84.37;97752.71;105432;1257;73019;-24
2024/02/13 04:52:34;;;;;;;13.40;7.90;;;;;;;6.78;85.66;97753.39;105527;1263;74371;-24
2024/02/13 04:55:01;;;;;;;10.70;7.60;;;;;;;7.42;83.34;97754.81;105588;1260;71514;-24
2024/02/13 04:57:29;;;;;;;13.80;9.10;;;;;;;7.48;82.19;97764.19;105604;1257;61033;-24
2024/02/13 04:59:57;;;;;;;13.20;8.90;;;;;;;7.23;83.39;97765.90;105571;1263;61269;-24
2024/02/13 05:02:29;;;;;;;12.40;8.60;;;;;;;7.38;82.47;97766.80;105630;1257;72786;-24
2024/02/13 05:07:44;;;;;;;10.90;7.20;;;;;;;7.31;83.41;97780.14;105497;1261;72881;-24
2024/02/13 05:10:12;;;;;;;11.50;7.50;;;;;;;7.75;80.93;97786.88;105542;1259;61052;-24
2024/02/13 05:12:42;;;;;;;44.00;21.80;;;;;;;7.57;81.62;97795.83;105522;1262;61078;-24
2024/02/13 05:15:10;;;;;;;16.80;9.90;;;;;;;7.33;82.27;97797.58;105620;1257;74501;-24
2024/02/13 05:17:37;;;;;;;11.50;6.90;;;;;;;7.13;83.45;97797.77;105561;1263;74317;-24
2024/02/13 05:20:11;;;;;;;13.10;8.10;;;;;;;7.09;83.99;97799.15;105619;1258;72694;-25
2024/02/13 05:22:38;;;;;;;9.80;6.60;;;;;;;7.46;82.23;97805.30;105585;1257;61203;-24
2024/02/13 05:25:07;;;;;;;27.20;18.00;;;;;;;7.69;80.67;97812.71;105614;1260;61128;-24
2024/02/13 05:27:34;;;;;;;17.40;10.70;;;;;;;7.69;80.88;97821.41;105500;1258;73480;-24
2024/02/13 05:30:04;;;;;;;28.50;18.10;;;;;;;7.95;79.73;97825.52;105580;1258;74315;-24
2024/02/13 05:32:33;;;;;;;15.00;9.40;;;;;;;7.00;83.38;97826.64;105553;1257;72526;-24
2024/02/13 05:35:01;;;;;;;11.60;7.90;;;;;;;7.54;82.60;97839.48;105556;1257;61090;-24
2024/02/13 05:37:28;;;;;;;9.60;6.40;;;;;;;8.58;78.90;97844.59;105498;1258;61179;-24
2024/02/13 05:39:56;;;;;;;9.20;6.00;;;;;;;8.75;77.34;97849.02;105510;1258;72895;-24
2024/02/13 05:42:23;;;;;;;8.70;5.70;;;;;;;8.65;76.51;97853.58;105651;1263;74170;-24
2024/02/13 05:44:50;;;;;;;11.90;7.20;;;;;;;8.42;76.31;97855.19;105608;1261;72663;-24
2024/02/13 05:47:18;;;;;;;9.30;5.90;;;;;;;7.93;78.08;97860.41;105573;1257;62089;-24
2024/02/13 05:49:46;;;;;;;14.50;8.00;;;;;;;8.00;79.10;97861.72;105566;1261;61154;-25
2024/02/13 05:52:13;;;;;;;28.70;16.90;;;;;;;8.29;77.48;97867.77;105597;1257;72887;-25
2024/02/13 05:54:42;;;;;;;34.30;19.20;;;;;;;7.82;79.54;97871.22;105539;1262;74696;-25
2024/02/13 05:57:10;;;;;;;28.60;13.80;;;;;;;7.35;81.92;97873.23;105530;1257;72447;-24
2024/02/13 05:59:37;;;;;;;18.30;11.30;;;;;;;7.33;82.54;97875.11;105401;1260;61059;-24
2024/02/13 06:02:04;;;;;;;15.50;9.90;;;;;;;7.35;82.31;97872.91;105598;1262;61266;-24
2024/02/13 06:04:31;;;;;;;13.90;8.70;;;;;;;7.48;82.26;97877.98;105625;1257;72897;-24
2024/02/13 06:06:59;;;;;;;14.40;9.10;;;;;;;7.63;81.09;97878.28;105595;1261;74197;-24
2024/02/13 06:09:27;;;;;;;12.20;8.20;;;;;;;7.27;82.67;97873.25;105620;1263;72473;-24
2024/02/13 06:11:55;;;;;;;14.80;9.20;;;;;;;7.05;83.83;97874.98;105581;1259;61065;-25
2024/02/13 06:14:22;;;;;;;14.40;8.30;;;;;;;6.83;84.89;97876.61;105608;1257;61180;-25
2024/02/13 06:16:50;;;;;;;21.70;11.10;;;;;;;6.72;86.16;97875.77;105646;1263;72976;-25
2024/02/13 06:19:17;;;;;;;19.00;10.40;;;;;;;7.14;84.25;97876.75;105562;1263;74187;-24
2024/02/13 06:21:44;;;;;;;15.60;9.30;;;;;;;7.38;82.85;97885.13;105562;1258;72366;-25
2024/02/13 06:24:12;;;;;;;10.40;6.50;;;;;;;7.01;84.20;97880.27;105523;1259;61064;-24
2024/02/13 06:26:39;;;;;;;9.80;6.00;;;;;;;6.67;86.13;97878.13;105545;1262;61167;-24
2024/02/13 06:29:08;;;;;;;13.20;8.30;;;;;;;6.73;86.37;97873.44;105570;1257;72701;-24
2024/02/13 06:31:35;;;;;;;9.90;6.30;;;;;;;6.59;87.09;97877.09;105609;1263;74064;-25
2024/02/13 06:34:02;;;;;;;12.80;7.80;;;;;;;6.82;86.52;97875.36;105624;1263;72758;-25
2024/02/13 06:36:30;;;;;;;12.30;8.50;;;;;;;6.57;87.03;97872.09;105564;1263;61854;-24
2024/02/13 06:38:58;;;;;;;13.30;7.90;;;;;;;6.47;87.93;97873.38;105546;1263;61167;-24
2024/02/13 06:41:25;;;;;;;9.40;6.50;;;;;;;6.52;88.66;97876.17;105489;1261;74110;-25
2024/02/13 06:43:53;;;;;;;10.80;7.00;;;;;;;7.03;85.34;97871.61;105390;1258;74405;-24
2024/02/13 06:46:21;;;;;;;6.60;4.70;;;;;;;6.68;87.17;97871.16;105405;1262;72594;-25
2024/02/13 06:48:48;;;;;;;8.60;6.00;;;;;;;6.54;87.97;97866.98;105282;1257;61201;-25
2024/02/13 06:51:17;;;;;;;10.40;6.60;;;;;;;6.22;89.77;97864.92;105208;1262;61208;-25
2024/02/13 06:53:45;;;;;;;9.80;6.50;;;;;;;6.45;89.78;97868.00;105615;1261;73574;-24
2024/02/13 06:56:12;;;;;;;21.40;11.90;;;;;;;6.95;86.77;97874.27;105583;1262;74170;-25
2024/02/13 06:58:39;;;;;;;297.60;153.80;;;;;;;7.24;84.93;97879.20;105427;1263;72415;-24
2024/02/13 07:01:08;;;;;;;63.70;32.40;;;;;;;7.22;84.68;97880.42;105582;1262;61246;-24
2024/02/13 07:03:36;;;;;;;16.60;10.10;;;;;;;7.16;84.90;97881.06;105590;1262;61106;-24
2024/02/13 07:06:04;;;;;;;58.40;30.70;;;;;;;7.48;83.61;97882.95;105626;1260;73793;-24
2024/02/13 07:08:31;;;;;;;15.50;9.10;;;;;;;7.84;81.44;97882.80;105548;1260;73340;-25
2024/02/13 07:10:59;;;;;;;12.10;7.90;;;;;;;7.43;82.65;97880.98;105434;1262;72537;-24
2024/02/13 07:13:26;;;;;;;92.50;43.00;;;;;;;7.34;83.88;97883.66;105557;1263;61086;-24
2024/02/13 07:15:53;;;;;;;15.20;9.40;;;;;;;7.13;84.81;97884.95;105298;1264;61121;-24
2024/02/13 07:18:20;;;;;;;146.00;72.00;;;;;;;7.22;84.93;97888.87;105489;1263;73842;-24
2024/02/13 07:20:48;;;;;;;300.00;145.90;;;;;;;7.80;82.19;97891.06;105352;1258;74797;-24
2024/02/13 07:23:16;;;;;;;376.30;173.80;;;;;;;8.12;80.35;97891.05;105409;1262;72648;-25
2024/02/13 07:25:43;;;;;;;90.20;49.30;;;;;;;7.84;81.06;97893.89;105589;1263;61062;-25
2024/02/13 07:28:10;;;;;;;338.80;185.00;;;;;;;8.09;80.77;97898.85;105394;1263;61128;-25
2024/02/13 07:30:37;;;;;;;138.60;75.10;;;;;;;7.41;83.14;97895.29;105312;1257;73657;-24
2024/02/13 07:33:04;;;;;;;202.30;133.10;;;;;;;7.38;83.71;97894.58;105331;1264;74215;-24
2024/02/13 07:35:31;;;;;;;23.40;13.80;;;;;;;7.65;82.94;97898.44;105559;1262;73294;-25
2024/02/13 07:37:59;;;;;;;10.40;7.40;;;;;;;7.48;83.49;97890.09;105350;1262;61183;-25
2024/02/13 07:40:27;;;;;;;10.80;7.60;;;;;;;7.30;84.13;97890.60;105301;1260;61068;-25
2024/02/13 07:42:54;;;;;;;8.20;5.20;;;;;;;7.09;85.62;97889.14;105565;1263;73764;-25
2024/02/13 07:45:21;;;;;;;8.10;4.70;;;;;;;7.26;85.36;97893.52;105565;1261;74042;-24
2024/02/13 07:47:48;;;;;;;8.20;6.00;;;;;;;7.58;83.75;97896.61;105601;1263;72535;-24
2024/02/13 07:50:15;;;;;;;17.60;12.70;;;;;;;7.54;83.84;97902.52;105531;1263;61058;-24
2024/02/13 07:52:44;;;;;;;31.20;23.10;;;;;;;7.64;83.42;97907.13;105416;1271;61173;-24
2024/02/13 07:55:11;;;;;;;8.60;5.40;;;;;;;7.33;84.84;97907.46;105498;1261;73725;-24
2024/02/13 07:57:39;;;;;;;8.60;6.00;;;;;;;7.69;83.51;97905.67;105304;1262;74174;-24
2024/02/13 08:00:08;;;;;;;8.10;5.50;;;;;;;7.57;83.53;97902.60;105574;1262;72476;-24
2024/02/13 08:02:35;;;;;;;7.60;5.30;;;;;;;7.31;84.71;97903.75;105370;1263;61106;-25
2024/02/13 08:05:04;;;;;;;17.50;11.30;;;;;;;7.46;84.90;97904.73;105570;1259;61170;-24
2024/02/13 08:07:32;;;;;;;6.70;4.40;;;;;;;7.19;85.84;97904.14;105533;1263;75528;-24
2024/02/13 08:09:59;;;;;;;8.30;5.70;;;;;;;7.27;85.69;97902.20;105632;1261;74253;-24
2024/02/13 08:12:28;;;;;;;8.70;5.60;;;;;;;7.66;83.87;97905.23;105534;1260;73016;-24
2024/02/13 08:14:55;;;;;;;10.10;4.90;;;;;;;7.41;84.97;97905.84;105201;1259;61182;-24
2024/02/13 08:17:23;;;;;;;13.70;9.40;;;;;;;7.38;85.18;97904.17;105269;1270;61096;-24
2024/02/13 08:19:50;;;;;;;5.50;4.20;;;;;;;7.30;85.95;97905.79;105586;1260;75731;-24
2024/02/13 08:22:18;;;;;;;13.70;8.20;;;;;;;7.57;84.92;97905.52;105612;1264;76199;-24
2024/02/13 08:24:46;;;;;;;4.50;3.40;;;;;;;7.88;83.03;97903.30;105601;1264;72495;-24
2024/02/13 08:27:17;;;;;;;66.10;36.90;;;;;;;7.40;85.03;97906.45;105486;1258;61082;-24
2024/02/13 08:29:45;;;;;;;7.40;4.80;;;;;;;7.33;85.67;97910.52;105571;1263;62006;-25
2024/02/13 08:32:12;;;;;;;4.20;3.40;;;;;;;7.45;86.18;97914.52;105648;1257;73538;-25
2024/02/13 08:34:40;;;;;;;4.40;3.60;;;;;;;7.62;84.62;97905.07;105564;1262;74369;-25
2024/02/13 08:37:08;;;;;;;72.60;37.00;;;;;;;7.60;84.71;97908.58;105567;1261;72355;-25
2024/02/13 08:39:36;;;;;;;11.50;7.90;;;;;;;7.28;86.34;97908.70;105307;1258;61102;-25
2024/02/13 08:42:04;;;;;;;4.20;3.50;;;;;;;7.26;87.46;97908.04;105466;1261;61139;-24
2024/02/13 08:44:33;;;;;;;4.70;3.80;;;;;;;7.27;87.27;97906.33;105599;1261;75379;-25
2024/02/13 08:47:00;;;;;;;6.60;5.40;;;;;;;7.64;85.94;97907.20;105619;1258;74159;-24
2024/02/13 08:49:28;;;;;;;7.20;4.60;;;;;;;7.64;85.18;97913.23;105538;1261;72661;-24
2024/02/13 08:51:56;;;;;;;5.10;4.40;;;;;;;7.44;86.41;97913.53;105511;1263;62118;-24
2024/02/13 08:54:24;;;;;;;6.30;4.80;;;;;;;7.38;87.37;97914.10;105552;1260;62111;-25
2024/02/13 08:56:51;;;;;;;19.60;13.40;;;;;;;7.94;84.96;97915.83;105594;1258;73928;-25
2024/02/13 08:59:19;;;;;;;42.60;31.20;;;;;;;8.13;83.35;97919.27;105243;1261;74454;-25
2024/02/13 09:01:46;;;;;;;21.60;14.70;;;;;;;7.90;83.61;97920.47;105321;1260;74280;-25
2024/02/13 09:04:13;;;;;;;12.60;9.70;;;;;;;7.42;86.16;97931.36;105349;1263;61155;-24
2024/02/13 09:06:41;;;;;;;10.00;6.10;;;;;;;7.93;84.54;97934.02;105542;1261;61954;-25
2024/02/13 09:09:11;;;;;;;9.40;6.00;;;;;;;9.16;80.43;97940.83;105532;1261;75683;-25
2024/02/13 09:11:39;;;;;;;8.40;5.70;;;;;;;9.86;77.78;97944.50;105606;1263;74338;-25
2024/02/13 09:14:07;;;;;;;15.60;8.20;;;;;;;9.58;75.96;97939.86;105592;1257;74366;-25
2024/02/13 09:16:34;;;;;;;16.30;10.00;;;;;;;8.91;78.94;97942.23;105271;1263;62078;-25
2024/02/13 09:19:02;;;;;;;56.50;26.70;;;;;;;8.81;79.47;97946.67;105469;1261;61835;-25
2024/02/13 09:21:30;;;;;;;51.90;25.50;;;;;;;8.77;80.25;97949.21;105260;1258;74140;-24
2024/02/13 09:23:57;;;;;;;37.20;19.40;;;;;;;8.65;79.87;97949.98;105483;1258;74218;-25
2024/02/13 09:26:25;;;;;;;109.20;61.30;;;;;;;8.48;80.46;97950.80;105537;1263;73123;-25
2024/02/13 09:28:54;;;;;;;68.30;36.10;;;;;;;8.51;80.95;97955.69;105635;1258;62860;-25
2024/02/13 09:31:21;;;;;;;90.70;48.10;;;;;;;7.85;83.34;97957.37;105633;1257;62106;-25
2024/02/13 09:33:48;;;;;;;127.40;66.90;;;;;;;7.78;84.55;97959.02;105512;1262;73873;-25
2024/02/13 09:36:17;;;;;;;87.70;49.30;;;;;;;7.66;85.20;97960.54;105424;1263;74536;-24
2024/02/13 09:38:45;;;;;;;55.60;36.80;;;;;;;7.89;84.55;97959.60;105290;1257;74284;-25
2024/02/13 09:41:15;;;;;;;44.20;24.30;;;;;;;7.96;83.61;97957.63;105489;1261;61151;-25
2024/02/13 09:43:47;;;;;;;20.30;15.70;;;;;;;7.72;85.30;97958.64;105622;1257;61033;-25
2024/02/13 09:46:18;;;;;;;30.60;19.60;;;;;;;7.53;86.00;97958.24;105548;1258;72813;-25
2024/02/13 09:48:48;;;;;;;22.00;12.20;;;;;;;7.68;85.66;97957.95;105590;1260;76019;-25
2024/02/13 09:51:18;;;;;;;12.10;8.60;;;;;;;7.66;85.93;97953.78;105642;1258;72674;-25
2024/02/13 09:53:46;;;;;;;7.90;6.40;;;;;;;7.96;85.03;97950.49;105561;1257;61793;-25
2024/02/13 09:56:14;;;;;;;8.50;6.60;;;;;;;7.93;84.34;97952.98;105335;1263;61946;-25
2024/02/13 09:58:44;;;;;;;10.40;8.30;;;;;;;7.61;85.66;97953.86;105525;1258;75470;-25
2024/02/13 10:01:11;;;;;;;13.30;9.30;;;;;;;7.45;86.73;97955.71;105591;1257;75046;-25
2024/02/13 10:03:39;;;;;;;26.40;16.80;;;;;;;7.67;85.79;97954.95;105600;1258;72410;-26
2024/02/13 10:06:07;;;;;;;11.40;7.90;;;;;;;8.21;83.53;97960.81;105551;1257;62204;-26
2024/02/13 10:08:37;;;;;;;10.10;8.00;;;;;;;8.27;82.38;97959.88;105575;1270;62097;-26
2024/02/13 10:11:12;;;;;;;15.20;11.20;;;;;;;8.02;83.74;97958.09;105529;1261;75300;-26
2024/02/13 10:13:40;;;;;;;11.60;7.10;;;;;;;7.80;85.01;97962.06;105633;1260;75976;-25
2024/02/13 10:16:23;;;;;;;12.20;8.70;;;;;;;8.36;83.00;97962.55;105597;1257;74067;-24
2024/02/13 10:18:51;;;;;;;9.80;6.50;;;;;;;8.68;80.86;97965.30;105457;1258;61226;-24
2024/02/13 10:21:22;;;;;;;9.30;7.10;;;;;;;8.42;81.47;97969.15;105193;1258;61824;-24
2024/02/13 10:23:53;;;;;;;17.70;13.40;;;;;;;8.20;82.39;97968.84;105499;1257;75580;-26
2024/02/13 10:26:25;;;;;;;7.60;6.10;;;;;;;7.64;85.16;97966.04;105417;1260;76145;-25
2024/02/13 10:28:54;;;;;;;16.30;12.90;;;;;;;8.39;82.30;97969.55;105241;1257;74894;-25
2024/02/13 10:31:26;;;;;;;135.50;70.50;;;;;;;8.27;82.52;97966.48;105369;1257;61260;-25
2024/02/13 10:33:54;;;;;;;161.10;87.90;;;;;;;7.95;83.67;97966.48;105618;1260;61899;-26
2024/02/13 10:36:22;;;;;;;429.20;245.90;;;;;;;7.78;84.64;97963.97;105628;1258;75423;-24
2024/02/13 10:38:49;;;;;;;90.40;52.30;;;;;;;7.85;85.22;97966.52;105640;1257;74384;-25
2024/02/13 10:41:23;;;;;;;19.00;13.90;;;;;;;7.87;84.57;97964.60;105558;1257;74028;-25
2024/02/13 10:43:52;;;;;;;76.40;43.10;;;;;;;8.13;83.10;97968.36;105346;1260;62085;-25
2024/02/13 10:46:22;;;;;;;20.00;13.50;;;;;;;8.35;82.62;97973.70;105620;1261;61153;-24
2024/02/13 10:48:49;;;;;;;24.80;18.70;;;;;;;7.76;84.63;97975.52;105619;1258;74421;-24
2024/02/13 10:51:17;;;;;;;14.00;10.70;;;;;;;7.85;85.44;97976.20;105574;1260;74387;-25
2024/02/13 10:53:48;;;;;;;9.90;7.30;;;;;;;7.99;84.50;97977.03;105524;1260;74366;-24
2024/02/13 10:56:15;;;;;;;8.50;6.50;;;;;;;8.19;83.09;97982.77;105274;1257;61755;-25
2024/02/13 10:58:43;;;;;;;11.30;8.40;;;;;;;8.23;82.65;97982.87;105555;1261;62070;-25
2024/02/13 11:01:11;;;;;;;9.40;7.20;;;;;;;8.34;82.38;97983.50;105605;1254;75616;-24
2024/02/13 11:03:39;;;;;;;9.10;5.50;;;;;;;8.24;83.17;97986.30;105876;1255;76274;-25
2024/02/13 11:06:07;;;;;;;32.00;19.20;;;;;;;8.65;82.04;97993.77;105642;1254;74515;-25
2024/02/13 11:08:35;;;;;;;138.50;77.50;;;;;;;8.74;80.90;97994.36;105711;1254;61802;-25
2024/02/13 11:11:13;;;;;;;53.50;31.80;;;;;;;8.73;80.49;98003.17;105716;1253;61146;-25
2024/02/13 11:13:42;;;;;;;35.70;26.60;;;;;;;8.47;81.62;98006.59;105682;1260;75650;-25
2024/02/13 11:16:10;;;;;;;23.20;15.20;;;;;;;8.14;83.86;98008.56;105688;1257;75970;-25
2024/02/13 11:18:55;;;;;;;39.40;26.70;;;;;;;8.97;80.77;98011.83;105710;1254;74698;-25
2024/02/13 11:21:25;;;;;;;30.60;18.40;;;;;;;9.03;79.64;98012.85;105668;1254;61217;-25
2024/02/13 11:23:55;;;;;;;52.30;34.50;;;;;;;8.97;80.02;98011.99;105712;1260;61825;-25
2024/02/13 11:26:25;;;;;;;25.50;15.90;;;;;;;8.46;82.23;98012.86;105691;1254;75363;-25
2024/02/13 11:28:53;;;;;;;30.20;21.20;;;;;;;8.28;82.79;98015.82;105801;1257;74349;-25
2024/02/13 11:31:23;;;;;;;12.60;9.40;;;;;;;8.06;84.86;98016.86;105579;1254;74380;-25
2024/02/13 11:34:09;;;;;;;14.50;9.10;;;;;;;8.73;81.44;98020.02;105556;1259;62199;-25
2024/02/13 11:36:37;;;;;;;14.00;9.30;;;;;;;8.88;79.90;98016.06;105672;1254;62031;-25
2024/02/13 11:39:06;;;;;;;18.50;11.70;;;;;;;8.92;79.61;98019.50;105872;1254;75013;-25
2024/02/13 11:41:34;;;;;;;98.50;60.80;;;;;;;8.79;80.16;98024.35;105704;1256;74214;-25
2024/02/13 11:44:12;;;;;;;13.40;8.30;;;;;;;8.69;80.77;98024.20;105874;1253;73380;-24
2024/02/13 11:46:53;;;;;;;10.30;7.20;;;;;;;8.67;81.15;98029.08;105816;1258;62148;-26
2024/02/13 11:49:22;;;;;;;10.50;5.50;;;;;;;9.20;78.79;98027.88;105806;1253;62197;-26
2024/02/13 11:51:50;;;;;;;12.20;8.60;;;;;;;9.24;78.23;98028.71;105699;1260;75385;-26
2024/02/13 11:54:18;;;;;;;13.10;6.90;;;;;;;9.17;78.38;98035.25;105687;1254;75955;-26
2024/02/13 11:56:46;;;;;;;13.00;9.10;;;;;;;8.83;79.96;98038.18;105743;1253;74469;-25
2024/02/13 11:59:13;;;;;;;11.50;7.20;;;;;;;8.58;81.28;98037.84;105860;1254;63519;-26
2024/02/13 12:01:43;;;;;;;9.90;5.90;;;;;;;9.06;79.92;98036.30;105888;1257;61630;-26
2024/02/13 12:04:11;;;;;;;11.60;8.10;;;;;;;9.44;77.64;98035.61;105742;1254;75255;-26
2024/02/13 12:06:40;;;;;;;13.00;9.70;;;;;;;9.14;78.09;98029.88;105891;1257;76216;-26
2024/02/13 12:09:09;;;;;;;15.70;9.50;;;;;;;8.66;79.96;98032.42;105762;1261;74697;-26
2024/02/13 12:11:36;;;;;;;14.20;9.70;;;;;;;8.55;81.18;98031.63;105837;1253;61395;-26
2024/02/13 12:14:05;;;;;;;12.90;8.50;;;;;;;8.31;82.01;98032.38;105730;1258;61992;-26
2024/02/13 12:16:33;;;;;;;9.30;6.30;;;;;;;8.07;83.43;98030.61;105702;1260;74919;-26
2024/02/13 12:19:02;;;;;;;14.60;7.80;;;;;;;8.67;81.64;98034.74;105865;1257;76265;-25
2024/02/13 12:21:30;;;;;;;12.30;8.30;;;;;;;8.88;79.96;98035.02;105582;1259;72243;-25